Nearby METAR Reports

 

KBFI - Seattle/Boeing, Washington, USA
Distance from station: S 10mi, 16km
Updated: Fri, 24-May-2019 5:53am PDT
Overcast
Overcast
 Wind from S
Wind: S 13 mph , 20 km/h
Temperature: 55°F , 13°C
Dew Point: 46°F , 8°C
Humidity: 72%
Barometer: 29.89 inHg , 1012.2 hPa
Clouds: Overcast
Visibility: 10 miles , 16 km
Cloud details: Overcast 1800 ft
2019/05/24 12:53 KBFI 241253Z 17011KT 10SM OVC018 13/08 A2989 RMK AO2 SLP121 T01280078
KRNT - Renton, Washington, USA
Distance from station: SSE 14mi, 23km
Updated: Fri, 24-May-2019 5:53am PDT
Overcast
Overcast
 Wind from S
Wind: S 12 mph , 19 km/h, Gust: 16 mph , 26 km/h
Temperature: 55°F , 13°C
Dew Point: 46°F , 8°C
Humidity: 72%
Barometer: 29.89 inHg , 1012.2 hPa
Clouds: Overcast
Visibility: 7 miles , 11 km
Cloud details: Overcast 2400 ft
2019/05/24 12:53 KRNT 241253Z AUTO 17010G14KT 7SM OVC024 13/08 A2989 RMK AO2 LTG DSNT E SLP127 T01330083
 
KPAE - Everett, Washington, USA
Distance from station: N 15mi, 25km
Updated: Fri, 24-May-2019 5:53am PDT
Overcast
Overcast
 Wind from S
Wind: S 6 mph , 9 km/h
Temperature: 54°F , 12°C
Dew Point: 48°F , 9°C
Humidity: 82%
Barometer: 29.89 inHg , 1012.2 hPa
Clouds: Overcast
Visibility: 10 miles , 16 km
Cloud details: Overcast 1500 ft
2019/05/24 12:53 KPAE 241253Z AUTO 19005KT 10SM OVC015 12/09 A2989 RMK AO2 SLP120 T01170094
KSEA - Seattle/Metro, Washington, USA
Distance from station: S 17mi, 27km
Updated: Fri, 24-May-2019 5:53am PDT
Overcast
Overcast
 Wind from S
Wind: S 15 mph , 24 km/h
Temperature: 54°F , 12°C
Dew Point: 45°F , 7°C
Humidity: 72%
Barometer: 29.89 inHg , 1012.2 hPa
Clouds: Overcast
Visibility: 10 miles , 16 km
Cloud details: Overcast 1800 ft
2019/05/24 12:53 KSEA 241253Z 19013KT 10SM OVC018 12/07 A2989 RMK AO2 SLP126 T01220072
 
KPWT - Bremerton Ntnl, Washington, USA
Distance from station: SW 24mi, 39km
Updated: Fri, 24-May-2019 5:56am PDT
Overcast
Overcast
 Wind from SSW
Wind: SSW 8 mph , 13 km/h
Temperature: 52°F , 11°C
Dew Point: 46°F , 8°C
Humidity: 82%
Barometer: 29.88 inHg , 1011.9 hPa
Clouds: Overcast
Visibility: 10 miles , 16 km
Cloud details: Overcast 1300 ft
2019/05/24 12:56 KPWT 241256Z AUTO 20007KT 10SM OVC013 11/08 A2988 RMK AO2 SLP134 T01060078
KTIW - Tacoma, Washington, USA
Distance from station: SSW 32mi, 52km
Updated: Fri, 24-May-2019 5:53am PDT
Overcast
Overcast
 Wind from SSW
Wind: SSW 12 mph , 19 km/h
Temperature: 52°F , 11°C
Dew Point: 46°F , 8°C
Humidity: 82%
Barometer: 29.90 inHg , 1012.5 hPa
Clouds: Overcast
Visibility: 10 miles , 16 km
Cloud details: Overcast 2100 ft
2019/05/24 12:53 KTIW 241253Z AUTO 21010KT 10SM OVC021 11/08 A2990 RMK AO2 RAB38E47 SLP124 P0000 T01110078
 
KAWO - Arlington Muni, Washington, USA
Distance from station: N 33mi, 54km
Updated: Fri, 24-May-2019 5:56am PDT
Overcast
Overcast
 Wind from SSE
Wind: SSE 8 mph , 13 km/h
Temperature: 55°F , 13°C
Dew Point: 52°F , 11°C
Humidity: 88%
Barometer: 29.89 inHg , 1012.2 hPa
Clouds: Overcast
Visibility: 10 miles , 16 km
Cloud details: Overcast 1600 ft
2019/05/24 12:56 KAWO 241256Z AUTO 15007KT 10SM OVC016 13/11 A2989 RMK AO2 SLP125 T01280106 $
KTCM - Tacoma/Mc Chord, Washington, USA
Distance from station: S 41mi, 65km
Updated: Fri, 24-May-2019 5:58am PDT
Overcast
Overcast
 Wind from SSW
Wind: SSW 12 mph , 19 km/h, Gust: 20 mph , 31 km/h
Temperature: 54°F , 12°C
Dew Point: 50°F , 10°C
Humidity: 88%
Barometer: 29.91 inHg , 1012.9 hPa
Clouds: Overcast
Visibility: 10 miles , 16 km
Cloud details: Overcast 2000 ft
2019/05/24 12:58 KTCM 241258Z AUTO 21010G17KT 10SM OVC020 12/10 A2991 RMK AO2 CIG 019 RWY34 SLP131 T01190103 $
 
KPLU - Puyallup/Thun, Washington, USA
Distance from station: S 41mi, 66km
Updated: Fri, 24-May-2019 6:35am PDT
Overcast
Overcast
 Wind from varies
Wind: varies 7 mph , 11 km/h, Gust: 17 mph , 28 km/h
Temperature: 54°F , 12°C
Dew Point: 48°F , 9°C
Humidity: 82%
Barometer: 29.92 inHg , 1013.2 hPa
Clouds: Overcast
Visibility: 10 miles , 16 km
Cloud details: Overcast 2800 ft
2019/05/24 13:35 KPLU 241335Z AUTO VRB06G15KT 180V250 10SM OVC028 12/09 A2992 RMK AO2
KGRF - Fort Lewis/Gray, Washington, USA
Distance from station: SSW 45mi, 72km
Updated: Fri, 24-May-2019 5:58am PDT
Overcast
Overcast
 Wind from S
Wind: S 15 mph , 24 km/h, Gust: 22 mph , 35 km/h
Temperature: 54°F , 12°C
Dew Point: 52°F , 11°C
Humidity: 94%
Barometer: 29.91 inHg , 1012.9 hPa
Clouds: Overcast
Visibility: 10 miles , 16 km
Cloud details: Overcast 2000 ft
2019/05/24 12:58 KGRF 241258Z AUTO 18013G19KT 10SM OVC020 12/11 A2991 RMK AO2 RAB16E25 SLP131 P0000 T01180105 $
 
KNUW - Whidbey Is. Nas, Washington, USA
Distance from station: NNW 48mi, 77km
Updated: Fri, 24-May-2019 6:38am PDT
Mostly cloudy
Mostly cloudy
 Wind from SSE
Wind: SSE 9 mph , 15 km/h
Temperature: 57°F , 14°C
Dew Point: 50°F , 10°C
Humidity: 77%
Barometer: 29.91 inHg , 1012.9 hPa
Clouds: Mostly cloudy
Visibility: 9 miles , 14 km
Cloud details: Partly cloudy 1500 ft
Mostly cloudy 2500 ft
Mostly cloudy 6500 ft
Mostly cloudy 15000 ft
2019/05/24 13:38 KNUW 241338Z 16008KT 9SM SCT015 BKN025 BKN065 BKN150 14/10 A2991 RMK AO2 RAB12E28 P0000 T01390100
KSHN - Shelton, Washington, USA
Distance from station: SW 50mi, 80km
Updated: Fri, 24-May-2019 6:06am PDT
Overcast
Overcast
 Wind from W
Wind: W 16 mph , 26 km/h, Gust: 24 mph , 39 km/h
Temperature: 54°F , 12°C
Dew Point: 46°F , 8°C
Humidity: 77%
Barometer: 29.86 inHg , 1011.2 hPa
Clouds: Overcast
Visibility: 9 miles , 14 km
Cloud details: Overcast 1400 ft
2019/05/24 13:06 KSHN 241306Z AUTO 26014G21KT 9SM OVC014 12/08 A2986 RMK AO2 T01170083